createdAt,value
2022-08-05T00:01:36.145Z,20.14
2022-08-05T00:04:18.688Z,20.14
2022-08-05T00:06:46.995Z,20.03
2022-08-05T00:09:15.891Z,19.99
2022-08-05T00:11:49.497Z,19.99
2022-08-05T00:14:29.146Z,20.03
2022-08-05T00:16:57.012Z,19.90
2022-08-05T00:19:33.830Z,19.96
2022-08-05T00:22:11.734Z,20.00
2022-08-05T00:24:42.555Z,19.97
2022-08-05T00:27:10.488Z,19.94
2022-08-05T00:29:43.664Z,19.95
2022-08-05T00:32:15.336Z,19.94
2022-08-05T00:35:04.789Z,19.89
2022-08-05T00:37:35.881Z,19.91
2022-08-05T00:40:26.613Z,19.80
2022-08-05T00:42:59.799Z,19.78
2022-08-05T00:45:39.162Z,19.81
2022-08-05T00:48:27.460Z,19.79
2022-08-05T00:50:58.538Z,19.75
2022-08-05T00:54:00.618Z,19.76
2022-08-05T00:56:14.947Z,19.65
2022-08-05T00:58:45.428Z,19.59
2022-08-05T01:01:15.429Z,19.70
2022-08-05T01:03:52.608Z,19.62
2022-08-05T01:06:19.558Z,19.60
2022-08-05T01:08:47.393Z,19.58
2022-08-05T01:11:33.721Z,19.51
2022-08-05T01:14:18.101Z,19.55
2022-08-05T01:17:05.367Z,19.54
2022-08-05T01:20:02.184Z,19.51
2022-08-05T01:23:23.362Z,19.43
2022-08-05T01:26:35.630Z,19.42
2022-08-05T01:29:11.155Z,19.42
2022-08-05T01:31:44.885Z,19.39
2022-08-05T01:34:26.688Z,19.39
2022-08-05T01:37:24.409Z,19.40
2022-08-05T01:39:58.922Z,19.34
2022-08-05T01:42:28.412Z,19.31
2022-08-05T01:45:02.322Z,19.31
2022-08-05T01:47:38.825Z,19.36
2022-08-05T01:50:17.727Z,19.37
2022-08-05T01:52:50.001Z,19.34
2022-08-05T01:55:20.877Z,19.33
2022-08-05T01:58:09.771Z,19.29
2022-08-05T02:00:42.370Z,19.25
2022-08-05T02:03:39.749Z,19.22
2022-08-05T02:06:23.918Z,19.24
2022-08-05T02:08:58.949Z,19.13
2022-08-05T02:11:52.481Z,19.28
2022-08-05T02:14:47.103Z,19.22
2022-08-05T02:18:27.916Z,19.22
2022-08-05T02:20:22.250Z,19.15
2022-08-05T02:23:01.470Z,19.16
2022-08-05T02:25:49.419Z,19.16
2022-08-05T02:28:28.633Z,19.13
2022-08-05T02:31:21.592Z,19.00
2022-08-05T02:34:11.805Z,19.04
2022-08-05T02:36:49.417Z,19.01
2022-08-05T02:39:20.528Z,19.01
2022-08-05T02:42:00.475Z,19.04
2022-08-05T02:44:30.585Z,19.00
2022-08-05T02:47:00.711Z,18.95
2022-08-05T02:49:36.935Z,18.89
2022-08-05T02:52:30.167Z,18.90
2022-08-05T02:55:01.705Z,18.80
2022-08-05T02:58:11.773Z,18.82
2022-08-05T03:00:20.357Z,18.84
2022-08-05T03:02:49.034Z,18.75
2022-08-05T03:05:17.400Z,18.87
2022-08-05T03:08:04.603Z,18.80
2022-08-05T03:10:35.998Z,18.80
2022-08-05T03:13:16.885Z,18.76
2022-08-05T03:15:48.473Z,18.78
2022-08-05T03:18:18.911Z,18.73
2022-08-05T03:20:56.883Z,18.70
2022-08-05T03:23:24.789Z,18.69
2022-08-05T03:26:04.281Z,18.66
2022-08-05T03:28:38.833Z,18.72
2022-08-05T03:31:06.363Z,18.76
2022-08-05T03:33:51.080Z,18.73
2022-08-05T03:36:30.126Z,18.71
2022-08-05T03:38:58.113Z,18.69
2022-08-05T03:41:25.416Z,18.68
2022-08-05T03:44:11.508Z,18.60
2022-08-05T03:46:38.997Z,18.60
2022-08-05T03:49:06.548Z,18.57
2022-08-05T03:52:48.462Z,18.55
2022-08-05T03:56:04.182Z,18.60
2022-08-05T03:57:45.943Z,18.52
2022-08-05T04:00:16.400Z,18.51
2022-08-05T04:02:57.578Z,18.51
2022-08-05T04:05:33.214Z,18.53
2022-08-05T04:08:30.180Z,18.47
2022-08-05T04:10:55.646Z,18.45
2022-08-05T04:13:22.764Z,18.42
2022-08-05T04:16:02.870Z,18.37
2022-08-05T04:18:32.200Z,18.39
2022-08-05T04:21:02.467Z,18.39
2022-08-05T04:23:57.151Z,18.39
2022-08-05T04:26:19.173Z,18.34
2022-08-05T04:28:51.306Z,18.31
2022-08-05T04:31:19.915Z,18.36
2022-08-05T04:34:18.182Z,18.29
2022-08-05T04:36:45.811Z,18.27
2022-08-05T04:39:16.910Z,18.38
2022-08-05T04:41:45.860Z,18.32
2022-08-05T04:44:21.012Z,18.29
2022-08-05T04:46:51.411Z,18.30
2022-08-05T04:49:24.572Z,18.26
2022-08-05T04:52:00.229Z,18.24
2022-08-05T04:54:27.613Z,18.22
2022-08-05T04:56:58.953Z,18.29
2022-08-05T04:59:39.131Z,18.28
2022-08-05T05:02:41.223Z,18.31
2022-08-05T05:05:02.818Z,18.29
2022-08-05T05:07:32.181Z,18.29
2022-08-05T05:10:04.076Z,18.27
2022-08-05T05:12:31.168Z,18.26
2022-08-05T05:14:58.156Z,18.20
2022-08-05T05:17:55.573Z,18.24
2022-08-05T05:20:13.572Z,18.25
2022-08-05T05:22:41.535Z,18.23
2022-08-05T05:25:16.504Z,18.27
2022-08-05T05:27:53.591Z,18.28
2022-08-05T05:30:31.184Z,18.30
2022-08-05T05:33:09.042Z,18.34
2022-08-05T05:35:45.490Z,18.35
2022-08-05T05:38:13.798Z,18.41
2022-08-05T05:40:50.187Z,18.42
2022-08-05T05:43:22.112Z,18.40
2022-08-05T05:46:12.270Z,18.45
2022-08-05T05:48:44.027Z,18.45
2022-08-05T05:51:13.090Z,18.49
2022-08-05T05:53:54.072Z,18.42
2022-08-05T05:56:32.964Z,18.50
2022-08-05T05:59:08.056Z,18.58
2022-08-05T06:01:40.761Z,18.61
2022-08-05T06:04:24.483Z,18.67
2022-08-05T06:06:51.458Z,18.65
2022-08-05T06:09:25.596Z,18.75
2022-08-05T06:12:01.401Z,18.72
2022-08-05T06:14:33.274Z,18.80
2022-08-05T06:17:31.864Z,18.91
2022-08-05T06:19:56.958Z,19.12
2022-08-05T06:22:35.335Z,19.27
2022-08-05T06:25:24.535Z,19.47
2022-08-05T06:28:10.783Z,19.80
2022-08-05T06:30:38.564Z,19.78
2022-08-05T06:33:05.501Z,20.06
2022-08-05T06:36:07.341Z,20.40
2022-08-05T06:38:36.407Z,20.65
2022-08-05T06:41:05.305Z,21.04
2022-08-05T06:43:57.506Z,21.32
2022-08-05T06:46:23.778Z,21.66
2022-08-05T06:48:58.756Z,21.84
2022-08-05T06:51:29.794Z,22.10
2022-08-05T06:54:02.528Z,22.39
2022-08-05T06:56:33.336Z,22.50
2022-08-05T06:59:03.643Z,22.35
2022-08-05T07:01:35.707Z,22.66
2022-08-05T07:04:03.888Z,22.88
2022-08-05T07:06:31.941Z,22.96
2022-08-05T07:09:00.288Z,23.12
2022-08-05T07:11:32.893Z,22.89
2022-08-05T07:14:29.600Z,22.53
2022-08-05T07:18:00.996Z,22.42
2022-08-05T07:22:39.703Z,22.55
2022-08-05T07:25:54.805Z,22.85
2022-08-05T07:28:03.800Z,23.36
2022-08-05T07:30:38.456Z,23.44
2022-08-05T07:33:15.607Z,23.50
2022-08-05T07:36:01.750Z,23.91
2022-08-05T07:38:33.803Z,24.00
2022-08-05T07:42:09.232Z,23.81
2022-08-05T07:44:00.500Z,24.61
2022-08-05T07:46:31.308Z,24.74
2022-08-05T07:49:05.964Z,24.56
2022-08-05T07:51:41.079Z,24.56
2022-08-05T07:54:26.772Z,24.35
2022-08-05T07:57:02.704Z,24.18
2022-08-05T07:59:46.977Z,24.45
2022-08-05T08:02:17.564Z,24.35
2022-08-05T08:04:49.761Z,25.00
2022-08-05T08:07:22.094Z,25.18
2022-08-05T08:09:52.299Z,25.02
2022-08-05T08:12:36.993Z,24.74
2022-08-05T08:15:15.038Z,24.81
2022-08-05T08:17:49.914Z,25.34
2022-08-05T08:20:43.862Z,25.20
2022-08-05T08:24:00.273Z,25.67
2022-08-05T08:25:59.356Z,25.61
2022-08-05T08:28:36.716Z,25.53
2022-08-05T08:31:09.636Z,25.99
2022-08-05T08:33:42.002Z,25.38
2022-08-05T08:36:37.411Z,25.43
2022-08-05T08:38:58.246Z,25.24
2022-08-05T08:41:52.446Z,24.85
2022-08-05T08:45:20.090Z,24.84
2022-08-05T08:47:47.668Z,24.61
2022-08-05T08:50:05.802Z,24.62
2022-08-05T08:52:53.040Z,23.95
2022-08-05T08:56:01.726Z,24.31
2022-08-05T08:58:12.822Z,23.57
2022-08-05T09:00:42.485Z,23.74
2022-08-05T09:03:16.284Z,23.87
2022-08-05T09:06:09.180Z,24.47
2022-08-05T09:08:34.869Z,24.33
2022-08-05T09:11:04.383Z,24.57
2022-08-05T09:14:01.199Z,24.69
2022-08-05T09:16:26.825Z,24.72
2022-08-05T09:18:55.483Z,24.81
2022-08-05T09:22:17.685Z,24.72
2022-08-05T09:24:13.067Z,25.93
2022-08-05T09:26:46.166Z,25.97
2022-08-05T09:29:16.262Z,25.58
2022-08-05T09:32:40.933Z,25.71
2022-08-05T09:34:55.921Z,25.32
2022-08-05T09:38:12.093Z,25.25
2022-08-05T09:40:41.062Z,24.91
2022-08-05T09:43:41.627Z,24.87
2022-08-05T09:46:31.644Z,24.23
2022-08-05T09:49:07.955Z,24.56
2022-08-05T09:51:50.051Z,24.22
2022-08-05T09:54:21.270Z,24.51
2022-08-05T09:56:57.384Z,23.89
2022-08-05T09:59:27.546Z,23.48
2022-08-05T10:01:58.194Z,23.64
2022-08-05T10:04:38.585Z,23.81
2022-08-05T10:07:21.001Z,23.77
2022-08-05T10:10:14.443Z,23.53
2022-08-05T10:12:49.191Z,23.58
2022-08-05T10:15:22.724Z,23.55
2022-08-05T10:18:17.321Z,23.56
2022-08-05T10:20:47.853Z,23.73
2022-08-05T10:23:55.437Z,23.77
2022-08-05T10:26:13.995Z,23.92
2022-08-05T10:28:44.113Z,23.63
2022-08-05T10:32:48.662Z,23.49
2022-08-05T10:34:02.649Z,23.58
2022-08-05T10:36:31.213Z,24.00
2022-08-05T10:39:11.692Z,24.00
2022-08-05T10:42:14.603Z,24.27
2022-08-05T10:44:47.116Z,24.81
2022-08-05T10:47:26.237Z,25.14
2022-08-05T10:50:32.526Z,24.77
2022-08-05T10:53:01.029Z,25.16
2022-08-05T10:55:38.597Z,24.74
2022-08-05T10:58:18.069Z,25.01
2022-08-05T11:00:48.446Z,25.35
2022-08-05T11:03:26.362Z,25.14
2022-08-05T11:06:15.344Z,25.49
2022-08-05T11:09:46.421Z,24.90
2022-08-05T11:12:37.288Z,24.67
2022-08-05T11:15:21.143Z,24.86
2022-08-05T11:17:57.140Z,24.69
2022-08-05T11:20:50.952Z,24.60
2022-08-05T11:24:04.360Z,24.01
2022-08-05T11:26:32.851Z,24.27
2022-08-05T11:29:12.517Z,24.19
2022-08-05T11:31:57.234Z,23.42
2022-08-05T11:34:51.638Z,23.90
2022-08-05T11:38:37.399Z,23.68
2022-08-05T11:41:01.032Z,24.07
2022-08-05T11:44:06.214Z,23.82
2022-08-05T11:46:33.273Z,23.87
2022-08-05T11:49:03.705Z,23.32
2022-08-05T11:51:44.077Z,23.17
2022-08-05T11:54:34.376Z,23.27
2022-08-05T11:57:07.908Z,23.40
2022-08-05T11:59:49.564Z,23.56
2022-08-05T12:02:30.616Z,23.32
2022-08-05T12:05:07.494Z,23.50
2022-08-05T12:08:08.585Z,23.38
2022-08-05T12:10:43.431Z,23.37
2022-08-05T12:13:16.830Z,23.37
2022-08-05T12:15:49.768Z,23.29
2022-08-05T12:18:32.773Z,23.51
2022-08-05T12:21:39.153Z,23.32
2022-08-05T12:24:17.570Z,23.44
2022-08-05T12:26:50.692Z,23.77
2022-08-05T12:29:22.939Z,23.62
2022-08-05T12:32:02.209Z,23.34
2022-08-05T12:34:36.998Z,23.55
2022-08-05T12:37:10.870Z,23.39
2022-08-05T12:39:48.493Z,23.44
2022-08-05T12:42:21.012Z,23.45
2022-08-05T12:44:48.996Z,23.46
2022-08-05T12:47:30.957Z,23.23
2022-08-05T12:50:04.854Z,23.14
2022-08-05T12:52:41.951Z,23.26
2022-08-05T12:55:26.336Z,23.35
2022-08-05T12:58:39.029Z,23.19
2022-08-05T13:02:01.518Z,23.42
2022-08-05T13:03:38.879Z,23.51
2022-08-05T13:06:17.631Z,23.17
2022-08-05T13:08:50.684Z,23.28
2022-08-05T13:11:25.631Z,23.36
2022-08-05T13:14:19.694Z,23.67
2022-08-05T13:16:54.751Z,23.77
2022-08-05T13:19:51.605Z,23.18
2022-08-05T13:22:29.379Z,23.30
2022-08-05T13:25:00.482Z,23.16
2022-08-05T13:27:44.092Z,23.39
2022-08-05T13:30:34.476Z,23.53
2022-08-05T13:33:03.408Z,23.44
2022-08-05T13:35:47.436Z,23.20
2022-08-05T13:38:28.193Z,23.36
2022-08-05T13:41:01.368Z,23.44
2022-08-05T13:43:45.235Z,23.55
2022-08-05T13:46:26.441Z,23.67
2022-08-05T13:49:03.980Z,23.26
2022-08-05T13:51:40.005Z,23.41
2022-08-05T13:54:12.684Z,23.45
2022-08-05T13:56:45.262Z,23.11
2022-08-05T13:59:24.293Z,23.06
2022-08-05T14:02:02.282Z,22.99
2022-08-05T14:04:51.764Z,22.69
2022-08-05T14:07:25.764Z,22.82
2022-08-05T14:10:18.678Z,22.81
2022-08-05T14:12:48.875Z,23.16
2022-08-05T14:16:06.075Z,22.94
2022-08-05T14:18:04.038Z,23.27
2022-08-05T14:20:32.719Z,22.99
2022-08-05T14:23:00.465Z,23.18
2022-08-05T14:25:30.312Z,22.94
2022-08-05T14:27:58.405Z,22.87
2022-08-05T14:30:27.707Z,22.87
2022-08-05T14:32:55.287Z,22.67
2022-08-05T14:35:37.336Z,22.38
2022-08-05T14:38:32.384Z,22.44
2022-08-05T14:41:06.283Z,22.44
2022-08-05T14:43:59.355Z,22.29
2022-08-05T14:46:28.357Z,22.19
2022-08-05T14:48:58.996Z,22.07
2022-08-05T14:51:31.163Z,22.21
2022-08-05T14:54:26.497Z,22.19
2022-08-05T14:56:47.229Z,21.98
2022-08-05T14:59:15.204Z,22.03
2022-08-05T15:01:48.987Z,21.91
2022-08-05T15:04:20.513Z,21.98
2022-08-05T15:06:49.903Z,21.85
2022-08-05T15:09:51.889Z,21.97
2022-08-05T15:12:16.999Z,21.80
2022-08-05T15:14:50.039Z,21.81
2022-08-05T15:17:46.289Z,21.96
2022-08-05T15:20:15.640Z,21.90
2022-08-05T15:22:44.987Z,21.84
2022-08-05T15:25:14.092Z,21.89
2022-08-05T15:27:42.917Z,21.93
2022-08-05T15:30:18.855Z,21.60
2022-08-05T15:32:46.712Z,21.41
2022-08-05T15:35:14.900Z,21.76
2022-08-05T15:38:31.900Z,21.42
2022-08-05T15:41:00.282Z,21.47
2022-08-05T15:43:20.473Z,21.12
2022-08-05T15:46:00.551Z,21.08
2022-08-05T15:48:28.823Z,20.91
2022-08-05T15:50:56.427Z,21.03
2022-08-05T15:53:26.479Z,20.91
2022-08-05T15:56:09.176Z,20.91
2022-08-05T15:58:41.134Z,20.88
2022-08-05T16:01:17.044Z,20.87
2022-08-05T16:03:48.323Z,20.98
2022-08-05T16:06:20.377Z,20.79
2022-08-05T16:08:50.362Z,20.65
2022-08-05T16:11:20.821Z,20.48
2022-08-05T16:14:05.597Z,20.66
2022-08-05T16:16:35.121Z,20.63
2022-08-05T16:19:02.453Z,20.61
2022-08-05T16:22:00.661Z,20.67
2022-08-05T16:24:40.241Z,20.70
2022-08-05T16:27:05.216Z,20.75
2022-08-05T16:29:37.329Z,20.76
2022-08-05T16:32:09.717Z,20.68
2022-08-05T16:34:39.232Z,20.72
2022-08-05T16:38:03.378Z,20.68
2022-08-05T16:40:05.219Z,20.79
2022-08-05T16:42:34.562Z,20.95
2022-08-05T16:45:02.009Z,20.68
2022-08-05T16:47:36.193Z,20.68
2022-08-05T16:50:13.917Z,20.67
2022-08-05T16:52:45.906Z,20.77
2022-08-05T16:55:16.369Z,20.51
2022-08-05T16:57:53.681Z,20.55
2022-08-05T17:00:34.386Z,20.24
2022-08-05T17:03:15.180Z,20.31
2022-08-05T17:05:51.733Z,20.35
2022-08-05T17:08:36.734Z,20.17
2022-08-05T17:11:12.845Z,20.15
2022-08-05T17:13:44.158Z,19.93
2022-08-05T17:16:29.763Z,19.81
2022-08-05T17:18:59.452Z,19.77
2022-08-05T17:21:35.663Z,19.80
2022-08-05T17:24:14.328Z,19.60
2022-08-05T17:26:53.013Z,19.64
2022-08-05T17:29:22.341Z,19.51
2022-08-05T17:31:58.216Z,19.39
2022-08-05T17:34:29.821Z,19.37
2022-08-05T17:37:00.465Z,19.30
2022-08-05T17:39:34.290Z,19.08
2022-08-05T17:42:17.825Z,19.13
2022-08-05T17:44:51.641Z,19.05
2022-08-05T17:47:23.064Z,18.87
2022-08-05T17:50:04.005Z,18.74
2022-08-05T17:52:35.096Z,18.83
2022-08-05T17:55:21.801Z,18.94
2022-08-05T17:57:50.204Z,18.74
2022-08-05T18:00:18.576Z,18.66
2022-08-05T18:02:47.179Z,18.68
2022-08-05T18:05:16.900Z,18.51
2022-08-05T18:07:44.864Z,18.59
2022-08-05T18:10:20.533Z,18.52
2022-08-05T18:12:49.573Z,18.40
2022-08-05T18:15:16.658Z,18.56
2022-08-05T18:17:58.959Z,18.43
2022-08-05T18:20:32.140Z,18.42
2022-08-05T18:23:11.349Z,18.42
2022-08-05T18:25:45.557Z,18.26
2022-08-05T18:28:16.229Z,18.27
2022-08-05T18:30:51.237Z,18.31
2022-08-05T18:33:23.057Z,18.15
2022-08-05T18:36:04.936Z,18.16
2022-08-05T18:38:37.045Z,18.11
2022-08-05T18:41:56.162Z,18.16
2022-08-05T18:43:58.083Z,18.05
2022-08-05T18:46:33.019Z,17.93
2022-08-05T18:49:23.207Z,17.97
2022-08-05T18:52:16.089Z,17.88
2022-08-05T18:54:45.880Z,17.84
2022-08-05T18:57:15.778Z,17.79
2022-08-05T19:00:02.302Z,17.67
2022-08-05T19:02:32.663Z,17.65
2022-08-05T19:06:05.550Z,17.57
2022-08-05T19:07:49.811Z,17.47
2022-08-05T19:10:28.418Z,17.40
2022-08-05T19:13:02.417Z,17.47
2022-08-05T19:15:58.109Z,17.28
2022-08-05T19:18:21.949Z,17.40
2022-08-05T19:20:52.727Z,17.13
2022-08-05T19:24:05.773Z,17.13
2022-08-05T19:26:13.753Z,17.02
2022-08-05T19:28:43.947Z,17.12
2022-08-05T19:31:12.894Z,16.90
2022-08-05T19:33:48.426Z,16.95
2022-08-05T19:36:25.991Z,16.84
2022-08-05T19:39:00.584Z,16.74
2022-08-05T19:41:58.250Z,16.79
2022-08-05T19:44:18.831Z,16.82
2022-08-05T19:46:46.048Z,16.78
2022-08-05T19:49:17.256Z,16.68
2022-08-05T19:52:04.278Z,16.61
2022-08-05T19:54:34.351Z,16.50
2022-08-05T19:57:08.461Z,16.49
2022-08-05T19:59:55.859Z,16.52
2022-08-05T20:02:33.566Z,16.47
2022-08-05T20:05:09.634Z,16.40
2022-08-05T20:07:48.250Z,16.22
2022-08-05T20:10:19.361Z,16.25
2022-08-05T20:12:49.497Z,16.25
2022-08-05T20:15:48.503Z,16.33
2022-08-05T20:18:10.533Z,16.24
2022-08-05T20:20:57.197Z,16.20
2022-08-05T20:23:40.449Z,15.87
2022-08-05T20:26:15.901Z,16.03
2022-08-05T20:28:56.131Z,15.95
2022-08-05T20:31:43.086Z,15.88
2022-08-05T20:34:16.817Z,15.84
2022-08-05T20:36:48.891Z,15.74
2022-08-05T20:39:17.147Z,15.82
2022-08-05T20:41:45.430Z,15.77
2022-08-05T20:44:29.389Z,15.80
2022-08-05T20:47:03.779Z,15.67
2022-08-05T20:49:33.220Z,15.64
2022-08-05T20:52:05.456Z,15.60
2022-08-05T20:54:42.819Z,15.50
2022-08-05T20:57:41.803Z,15.42
2022-08-05T21:00:35.087Z,15.32
2022-08-05T21:03:07.523Z,15.35
2022-08-05T21:05:53.890Z,15.29
2022-08-05T21:08:32.842Z,15.14
2022-08-05T21:11:12.283Z,15.14
2022-08-05T21:13:55.758Z,15.06
2022-08-05T21:16:29.099Z,15.05
2022-08-05T21:18:59.956Z,14.95
2022-08-05T21:21:39.731Z,14.90
2022-08-05T21:24:19.755Z,14.80
2022-08-05T21:26:53.517Z,14.70
2022-08-05T21:29:31.421Z,14.67
2022-08-05T21:31:59.951Z,14.56
2022-08-05T21:34:28.178Z,14.61
2022-08-05T21:36:55.461Z,14.43
2022-08-05T21:39:26.653Z,14.43
2022-08-05T21:42:01.205Z,14.31
2022-08-05T21:44:29.346Z,14.35
2022-08-05T21:46:57.988Z,14.31
2022-08-05T21:49:58.858Z,14.22
2022-08-05T21:52:22.735Z,14.20
2022-08-05T21:54:56.154Z,14.15
2022-08-05T21:57:31.973Z,14.14
2022-08-05T22:00:10.746Z,14.05
2022-08-05T22:02:38.973Z,13.98
2022-08-05T22:05:09.105Z,13.95
2022-08-05T22:07:39.756Z,13.88
2022-08-05T22:10:26.840Z,13.82
2022-08-05T22:12:57.404Z,13.86
2022-08-05T22:16:01.060Z,13.77
2022-08-05T22:18:14.461Z,13.66
2022-08-05T22:20:41.972Z,13.72
2022-08-05T22:24:02.160Z,13.65
2022-08-05T22:26:35.234Z,13.66
2022-08-05T22:29:03.113Z,13.47
2022-08-05T22:31:31.506Z,13.54
2022-08-05T22:34:20.191Z,13.51
2022-08-05T22:36:56.511Z,13.41
2022-08-05T22:39:32.558Z,13.41
2022-08-05T22:42:12.175Z,13.36
2022-08-05T22:44:48.157Z,13.36
2022-08-05T22:47:28.916Z,13.34
2022-08-05T22:50:20.112Z,13.33
2022-08-05T22:52:51.406Z,13.23
2022-08-05T22:55:21.844Z,13.22
2022-08-05T22:57:53.546Z,13.25
2022-08-05T23:00:23.538Z,13.14
2022-08-05T23:02:53.541Z,13.17
2022-08-05T23:05:22.621Z,13.04
2022-08-05T23:07:51.183Z,13.11
2022-08-05T23:10:20.971Z,13.10
2022-08-05T23:12:54.579Z,13.03
2022-08-05T23:15:29.414Z,13.02
2022-08-05T23:18:03.349Z,13.00
2022-08-05T23:20:37.124Z,12.99
2022-08-05T23:23:05.940Z,12.97
2022-08-05T23:25:51.258Z,12.71
2022-08-05T23:28:22.036Z,12.62
2022-08-05T23:30:53.516Z,12.71
2022-08-05T23:33:26.203Z,12.65
2022-08-05T23:36:10.165Z,12.70
2022-08-05T23:38:37.877Z,12.67
2022-08-05T23:41:04.931Z,12.55
2022-08-05T23:44:04.439Z,12.48
2022-08-05T23:46:21.987Z,12.51
2022-08-05T23:49:00.460Z,12.43
2022-08-05T23:51:56.899Z,12.42
2022-08-05T23:54:30.240Z,12.35
2022-08-05T23:57:03.766Z,12.38
2022-08-05T23:59:37.754Z,12.26
